Time;durP1;ratioP1;P1;durP2;ratioP2;P2;SDS_P1;SDS_P2;PMS_P1;PMS_P2;Temp;Humidity;BMP_temperature;BMP_pressure;BME280_temperature;BME280_humidity;BME280_pressure;Samples;Min_cycle;Max_cycle;Signal;HPM_P1;HPM_P2
2021/12/07 00:02:09;;;;;;;17.73;7.90;;;3.80;99.90;;;;;;5079717;28;20191;-69
2021/12/07 00:04:39;;;;;;;34.83;7.83;;;3.80;99.90;;;;;;5079737;28;20195;-70
2021/12/07 00:07:08;;;;;;;37.50;8.30;;;3.70;99.90;;;;;;5077861;28;20200;-72
2021/12/07 00:09:43;;;;;;;28.07;8.40;;;3.70;99.90;;;;;;5080074;28;20203;-70
2021/12/07 00:12:13;;;;;;;22.97;7.57;;;3.70;99.90;;;;;;5098180;28;20721;-70
2021/12/07 00:14:44;;;;;;;33.27;9.23;;;3.70;99.90;;;;;;5113185;28;20310;-70
2021/12/07 00:17:13;;;;;;;24.97;8.47;;;3.70;99.90;;;;;;5084673;28;20667;-69
2021/12/07 00:19:41;;;;;;;28.20;8.50;;;3.60;99.90;;;;;;5082129;28;20271;-70
2021/12/07 00:22:11;;;;;;;30.63;8.03;;;3.60;99.90;;;;;;5078035;28;20199;-69
2021/12/07 00:24:42;;;;;;;28.63;7.63;;;3.60;99.90;;;;;;5078613;28;20212;-71
2021/12/07 00:27:10;;;;;;;25.50;8.13;;;3.60;99.90;;;;;;5085917;28;20192;-71
2021/12/07 00:29:40;;;;;;;27.93;8.67;;;3.60;99.90;;;;;;5081604;28;20256;-71
2021/12/07 00:32:22;;;;;;;30.97;8.20;;;3.60;99.90;;;;;;5087210;28;20196;-71
2021/12/07 00:35:20;;;;;;;27.00;8.30;;;3.60;99.90;;;;;;5081544;28;20195;-72
2021/12/07 00:37:52;;;;;;;24.57;6.90;;;3.50;99.90;;;;;;5080765;28;20290;-72
2021/12/07 00:40:25;;;;;;;34.33;7.53;;;3.50;99.90;;;;;;5080359;28;20195;-72
2021/12/07 00:42:54;;;;;;;22.63;6.50;;;3.40;99.90;;;;;;5079963;28;20583;-71
2021/12/07 00:45:25;;;;;;;28.30;6.63;;;3.40;99.90;;;;;;5083488;28;20278;-71
2021/12/07 00:47:55;;;;;;;22.10;6.73;;;3.40;99.90;;;;;;5081215;28;20199;-71
2021/12/07 00:50:25;;;;;;;26.90;6.57;;;3.40;99.90;;;;;;5084312;28;20191;-72
2021/12/07 00:52:55;;;;;;;29.43;7.10;;;3.40;99.90;;;;;;5088398;28;20199;-71
2021/12/07 00:55:29;;;;;;;29.23;6.80;;;3.40;99.90;;;;;;5082952;28;20196;-72
2021/12/07 00:58:00;;;;;;;24.17;7.30;;;3.40;99.90;;;;;;5081207;28;20737;-71
2021/12/07 01:00:31;;;;;;;20.63;5.77;;;3.50;99.90;;;;;;5079335;28;20300;-71
2021/12/07 01:03:12;;;;;;;31.60;6.60;;;3.50;99.90;;;;;;5088222;28;20245;-72
2021/12/07 01:06:26;;;;;;;30.90;5.97;;;3.40;99.90;;;;;;5082637;28;20202;-71
2021/12/07 01:09:19;;;;;;;30.33;5.87;;;3.50;99.90;;;;;;5079929;28;20195;-71
2021/12/07 01:25:52;;;;;;;18.73;5.40;;;3.50;99.90;;;;;;5070616;28;20742;-71
2021/12/07 01:28:28;;;;;;;25.70;4.80;;;3.50;99.90;;;;;;5091269;28;20241;-71
2021/12/07 01:31:01;;;;;;;19.07;4.60;;;3.50;99.90;;;;;;5111641;27;20202;-71
2021/12/07 01:33:47;;;;;;;21.50;4.83;;;3.50;99.90;;;;;;5099042;28;20188;-71
2021/12/07 01:36:35;;;;;;;23.77;4.73;;;3.50;99.90;;;;;;5082310;28;20234;-71
2021/12/07 01:45:21;;;;;;;19.23;4.90;;;3.40;99.90;;;;;;5046535;28;20247;-71
2021/12/07 01:47:58;;;;;;;18.63;4.57;;;3.50;99.90;;;;;;5045268;28;20339;-71
2021/12/07 01:50:44;;;;;;;22.67;5.07;;;3.50;99.90;;;;;;5075171;28;20286;-71
2021/12/07 01:57:47;;;;;;;29.10;5.57;;;3.40;99.90;;;;;;5086962;28;20617;-71
2021/12/07 02:01:38;;;;;;;22.33;5.53;;;3.40;99.90;;;;;;5078007;28;20272;-71
2021/12/07 02:04:07;;;;;;;24.07;5.83;;;3.50;99.90;;;;;;5082636;28;20780;-71
2021/12/07 02:06:35;;;;;;;28.33;6.00;;;3.50;99.90;;;;;;5081216;28;20196;-71
2021/12/07 02:09:06;;;;;;;14.33;5.33;;;3.50;99.90;;;;;;5113744;27;20273;-70
2021/12/07 02:11:35;;;;;;;28.13;5.90;;;3.50;99.90;;;;;;5114652;27;20595;-70
2021/12/07 02:14:15;;;;;;;22.13;5.00;;;3.50;99.90;;;;;;5081499;28;20223;-71
2021/12/07 02:16:47;;;;;;;18.50;4.97;;;3.50;99.90;;;;;;5085095;28;20191;-71
2021/12/07 02:19:16;;;;;;;28.53;5.60;;;3.50;99.90;;;;;;5084504;28;20200;-71
2021/12/07 02:21:46;;;;;;;19.60;5.27;;;3.50;99.90;;;;;;5112475;27;20279;-71
2021/12/07 02:24:15;;;;;;;20.03;4.90;;;3.40;99.90;;;;;;5080259;28;20783;-71
2021/12/07 02:26:44;;;;;;;17.40;5.07;;;3.40;99.90;;;;;;5078485;28;20290;-71
2021/12/07 02:29:13;;;;;;;20.03;4.97;;;3.30;99.90;;;;;;5080451;28;20226;-71
2021/12/07 02:31:41;;;;;;;18.67;4.50;;;3.30;99.90;;;;;;5080161;28;20275;-70
2021/12/07 02:34:11;;;;;;;27.90;4.83;;;3.20;99.90;;;;;;5077948;28;20241;-70
2021/12/07 02:36:41;;;;;;;17.23;4.50;;;3.20;99.90;;;;;;5076007;28;20203;-71
2021/12/07 02:39:13;;;;;;;16.40;3.83;;;3.30;99.90;;;;;;5081434;28;20295;-71
2021/12/07 02:41:42;;;;;;;19.03;4.20;;;3.20;99.90;;;;;;5083515;28;20212;-71
2021/12/07 02:44:11;;;;;;;18.53;4.80;;;3.10;99.90;;;;;;5077446;28;20306;-70
2021/12/07 02:46:40;;;;;;;17.87;4.70;;;3.10;99.90;;;;;;5078942;28;20591;-71
2021/12/07 02:49:09;;;;;;;18.87;4.20;;;3.10;99.90;;;;;;5085284;28;20689;-71
2021/12/07 02:51:38;;;;;;;18.83;4.50;;;3.10;99.90;;;;;;5079428;28;20671;-70
2021/12/07 02:54:06;;;;;;;14.03;3.60;;;3.10;99.90;;;;;;5077124;28;20227;-70
2021/12/07 02:56:36;;;;;;;17.37;4.17;;;3.10;99.90;;;;;;5079392;28;20199;-71
2021/12/07 02:59:05;;;;;;;15.07;3.50;;;3.10;99.90;;;;;;5079959;28;20222;-71
2021/12/07 03:01:41;;;;;;;14.53;4.13;;;3.20;99.90;;;;;;5086372;28;20215;-71
2021/12/07 03:04:14;;;;;;;16.83;3.63;;;3.10;99.90;;;;;;5080139;28;20210;-71
2021/12/07 03:06:53;;;;;;;22.17;4.27;;;3.10;99.90;;;;;;5074846;28;20224;-71
2021/12/07 03:26:07;;;;;;;18.60;3.60;;;3.00;99.90;;;;;;5084003;28;20251;-71
2021/12/07 03:28:39;;;;;;;18.90;3.43;;;3.00;99.90;;;;;;5079499;28;20660;-71
2021/12/07 03:31:10;;;;;;;20.27;3.60;;;3.00;99.90;;;;;;5085417;28;20208;-71
2021/12/07 03:33:38;;;;;;;13.60;3.70;;;3.00;99.90;;;;;;5082536;28;20195;-71
2021/12/07 03:36:09;;;;;;;21.00;3.63;;;2.90;99.90;;;;;;5077616;28;20207;-70
2021/12/07 03:38:38;;;;;;;13.13;3.30;;;2.90;99.90;;;;;;5077278;28;20682;-71
2021/12/07 03:41:07;;;;;;;20.30;3.50;;;2.90;99.90;;;;;;5081589;28;20207;-71
2021/12/07 03:43:37;;;;;;;14.33;3.67;;;2.90;99.90;;;;;;5084041;28;20206;-71
2021/12/07 03:46:06;;;;;;;21.97;4.20;;;2.90;99.90;;;;;;5079439;28;20607;-71
2021/12/07 03:48:36;;;;;;;17.50;3.47;;;2.90;99.90;;;;;;5063443;28;20194;-71
2021/12/07 03:51:05;;;;;;;12.17;3.43;;;2.90;99.90;;;;;;5078947;28;20199;-71
2021/12/07 03:53:34;;;;;;;11.37;3.20;;;2.90;99.90;;;;;;5067147;28;20196;-71
2021/12/07 03:56:05;;;;;;;11.40;3.27;;;2.80;99.90;;;;;;5083081;28;20191;-71
2021/12/07 03:58:34;;;;;;;21.87;3.07;;;2.80;99.90;;;;;;5084248;28;20278;-71
2021/12/07 04:01:06;;;;;;;15.23;3.50;;;2.80;99.90;;;;;;5076026;28;20206;-71
2021/12/07 04:03:36;;;;;;;20.13;3.60;;;2.70;99.90;;;;;;5083031;28;20583;-71
2021/12/07 04:06:06;;;;;;;15.50;3.50;;;2.70;99.90;;;;;;5077700;28;20216;-71
2021/12/07 04:08:37;;;;;;;12.93;3.57;;;2.60;99.90;;;;;;5079697;28;20240;-71
2021/12/07 04:11:07;;;;;;;15.27;3.03;;;2.60;99.90;;;;;;5084118;28;20223;-70
2021/12/07 04:13:36;;;;;;;20.47;3.90;;;2.50;99.90;;;;;;5079334;28;20241;-70
2021/12/07 04:16:09;;;;;;;20.90;3.63;;;2.50;99.90;;;;;;5075035;28;20266;-70
2021/12/07 04:18:38;;;;;;;14.83;3.73;;;2.50;99.90;;;;;;5084187;28;20210;-70
2021/12/07 04:21:07;;;;;;;22.43;3.83;;;2.40;99.90;;;;;;5077969;28;20187;-70
2021/12/07 04:23:36;;;;;;;13.20;3.93;;;2.40;99.90;;;;;;5086167;28;20728;-70
2021/12/07 04:26:08;;;;;;;25.00;3.57;;;2.30;99.90;;;;;;5087232;28;20208;-70
2021/12/07 04:28:37;;;;;;;14.87;3.27;;;2.30;99.90;;;;;;5085407;28;20302;-71
2021/12/07 04:31:08;;;;;;;13.03;3.50;;;2.20;99.90;;;;;;5089524;28;20199;-71
2021/12/07 04:33:36;;;;;;;17.10;3.90;;;2.20;99.90;;;;;;5082281;28;20196;-71
2021/12/07 04:36:08;;;;;;;13.40;3.20;;;2.20;99.90;;;;;;5077813;28;20188;-71
2021/12/07 04:38:37;;;;;;;17.83;3.60;;;2.10;99.90;;;;;;5085388;28;20241;-71
2021/12/07 04:41:07;;;;;;;17.63;3.70;;;2.10;99.90;;;;;;5087281;28;20259;-70
2021/12/07 04:43:38;;;;;;;16.30;3.43;;;2.00;99.90;;;;;;5087502;28;20241;-70
2021/12/07 04:46:14;;;;;;;17.27;3.70;;;2.00;99.90;;;;;;5084208;28;20219;-69
2021/12/07 05:00:05;;;;;;;23.77;4.03;;;2.10;99.90;;;;;;5088672;28;20248;-71
2021/12/07 05:02:37;;;;;;;20.23;4.23;;;2.00;99.90;;;;;;5084763;28;20596;-71
2021/12/07 05:05:08;;;;;;;12.43;3.93;;;1.90;99.90;;;;;;5082478;28;20304;-69
2021/12/07 05:07:42;;;;;;;14.30;3.57;;;1.90;99.90;;;;;;5082331;28;20196;-70
2021/12/07 05:13:20;;;;;;;15.70;3.43;;;2.00;99.90;;;;;;5081495;28;20247;-70
2021/12/07 05:16:07;;;;;;;28.23;4.97;;;2.00;99.90;;;;;;5082942;28;20651;-70
2021/12/07 05:18:53;;;;;;;15.43;4.00;;;2.00;99.90;;;;;;5082742;28;20550;-70
2021/12/07 05:24:12;;;;;;;14.83;3.40;;;2.00;99.90;;;;;;5082116;28;20196;-69
2021/12/07 05:37:45;;;;;;;11.87;3.53;;;2.00;99.90;;;;;;5075019;28;20274;-70
2021/12/07 05:40:17;;;;;;;17.80;4.00;;;2.00;99.90;;;;;;5082293;28;20282;-70
2021/12/07 05:42:46;;;;;;;15.43;4.47;;;1.90;99.90;;;;;;5094032;28;20233;-70
2021/12/07 05:45:20;;;;;;;15.80;3.80;;;2.00;99.90;;;;;;5080525;28;20195;-70
2021/12/07 05:47:49;;;;;;;24.70;4.67;;;2.00;99.90;;;;;;5083646;28;20312;-70
2021/12/07 05:50:22;;;;;;;20.43;4.00;;;2.00;99.90;;;;;;5081131;28;20246;-70
2021/12/07 05:52:50;;;;;;;16.63;4.00;;;2.00;99.90;;;;;;5096459;28;20559;-71
2021/12/07 05:55:19;;;;;;;17.13;4.13;;;1.90;99.90;;;;;;5083899;28;20199;-70
2021/12/07 05:57:48;;;;;;;18.97;4.27;;;1.90;99.90;;;;;;5083811;28;20183;-70
2021/12/07 06:00:24;;;;;;;18.80;4.90;;;1.90;99.90;;;;;;5111283;27;20188;-70
2021/12/07 06:03:30;;;;;;;24.13;4.90;;;1.80;99.90;;;;;;5076825;28;20203;-70
2021/12/07 06:06:38;;;;;;;13.97;4.07;;;1.80;99.90;;;;;;5079858;28;20218;-70
2021/12/07 06:09:07;;;;;;;15.57;3.63;;;1.70;99.90;;;;;;5082705;28;20619;-69
2021/12/07 06:11:36;;;;;;;25.17;4.43;;;1.60;99.90;;;;;;5077634;28;20235;-69
2021/12/07 06:14:04;;;;;;;7.63;3.90;;;1.70;99.90;;;;;;5083296;28;20195;-69
2021/12/07 06:16:33;;;;;;;16.93;4.13;;;1.80;99.90;;;;;;5081663;28;20709;-69
2021/12/07 06:19:01;;;;;;;17.27;4.27;;;1.80;99.90;;;;;;5077575;28;20210;-69
2021/12/07 06:21:29;;;;;;;14.63;3.60;;;1.70;99.90;;;;;;5084906;28;20211;-69
2021/12/07 06:24:00;;;;;;;17.93;4.47;;;1.70;99.90;;;;;;5078299;28;20245;-69
2021/12/07 06:26:28;;;;;;;16.93;3.80;;;1.70;99.90;;;;;;5085598;28;20601;-68
2021/12/07 06:41:13;;;;;;;16.40;5.07;;;1.70;99.90;;;;;;5103110;27;21208;-63
2021/12/07 06:43:41;;;;;;;17.00;4.40;;;1.60;99.90;;;;;;5085640;28;20211;-63
2021/12/07 06:46:10;;;;;;;16.07;4.60;;;1.50;99.90;;;;;;5082969;28;20207;-63
2021/12/07 06:48:40;;;;;;;18.00;4.30;;;1.50;99.90;;;;;;5084207;28;20196;-64
2021/12/07 06:51:08;;;;;;;23.30;4.33;;;1.50;99.90;;;;;;5080721;28;20195;-63
2021/12/07 06:53:37;;;;;;;13.87;4.93;;;1.40;99.90;;;;;;5081268;28;20195;-64
2021/12/07 06:56:06;;;;;;;24.60;5.30;;;1.40;99.90;;;;;;5080259;28;20195;-63
2021/12/07 06:58:37;;;;;;;17.80;4.70;;;1.30;99.90;;;;;;5097729;28;20214;-63
2021/12/07 07:01:10;;;;;;;22.20;4.40;;;1.30;99.90;;;;;;5080862;28;20285;-64
2021/12/07 07:03:40;;;;;;;13.77;4.27;;;1.30;99.90;;;;;;5083398;28;20599;-63
2021/12/07 07:06:09;;;;;;;19.67;4.00;;;1.20;99.90;;;;;;5081670;28;20188;-63
2021/12/07 07:08:37;;;;;;;15.87;4.43;;;1.20;99.90;;;;;;5083272;28;20796;-63
2021/12/07 07:11:06;;;;;;;12.93;4.70;;;1.20;99.90;;;;;;5083010;28;20183;-62
2021/12/07 07:13:36;;;;;;;28.73;5.17;;;1.20;99.90;;;;;;5082200;28;20250;-63
2021/12/07 07:16:06;;;;;;;17.77;5.13;;;1.20;99.90;;;;;;5093374;28;20195;-63
2021/12/07 07:18:35;;;;;;;20.67;4.67;;;1.20;99.90;;;;;;5098793;28;20202;-64
2021/12/07 07:21:04;;;;;;;20.03;4.97;;;1.20;99.90;;;;;;5083630;28;20195;-63
2021/12/07 07:23:33;;;;;;;16.67;5.17;;;1.20;99.90;;;;;;5100158;28;20210;-63
2021/12/07 07:26:03;;;;;;;23.70;5.17;;;1.20;99.90;;;;;;5084654;28;20298;-64
2021/12/07 07:28:33;;;;;;;27.10;5.60;;;1.20;99.90;;;;;;5099561;28;20188;-63
2021/12/07 07:31:05;;;;;;;21.97;5.77;;;1.20;99.90;;;;;;5081645;28;20219;-63
2021/12/07 07:33:34;;;;;;;31.77;6.10;;;1.20;99.90;;;;;;5081986;28;20216;-63
2021/12/07 07:36:04;;;;;;;28.77;6.10;;;1.20;99.90;;;;;;5079041;28;20210;-63
2021/12/07 07:38:33;;;;;;;21.83;6.80;;;1.20;99.90;;;;;;5079545;28;20199;-64
2021/12/07 07:41:02;;;;;;;20.23;5.90;;;1.20;99.90;;;;;;5070860;28;20254;-63
2021/12/07 07:43:32;;;;;;;28.60;7.37;;;1.20;99.90;;;;;;5047311;28;20196;-64
2021/12/07 07:46:01;;;;;;;28.40;8.00;;;1.10;99.90;;;;;;5066578;28;20261;-63
2021/12/07 07:48:31;;;;;;;31.63;9.33;;;1.20;99.90;;;;;;5069223;28;20200;-63
2021/12/07 07:51:01;;;;;;;20.90;9.47;;;1.20;99.90;;;;;;5064748;28;20230;-64
2021/12/07 07:53:29;;;;;;;41.17;11.83;;;1.20;99.90;;;;;;5066426;28;20249;-64
2021/12/07 07:55:58;;;;;;;64.80;26.17;;;1.20;99.90;;;;;;5068583;28;20266;-63
2021/12/07 07:58:26;;;;;;;48.73;22.43;;;1.20;99.90;;;;;;5065923;28;20220;-63
2021/12/07 08:00:54;;;;;;;37.83;12.43;;;1.20;99.90;;;;;;5067801;28;20192;-63
2021/12/07 08:03:24;;;;;;;39.20;15.17;;;1.20;99.90;;;;;;5067356;28;20250;-63
2021/12/07 08:05:54;;;;;;;69.93;24.50;;;1.10;99.90;;;;;;5067969;28;20281;-64
2021/12/07 08:08:22;;;;;;;48.37;16.67;;;1.20;99.90;;;;;;5062639;28;20222;-63
2021/12/07 08:10:51;;;;;;;33.37;9.50;;;1.20;99.90;;;;;;5067421;28;20243;-63
2021/12/07 08:13:19;;;;;;;40.60;8.13;;;1.20;99.90;;;;;;5067386;28;20219;-63
2021/12/07 08:15:49;;;;;;;25.33;7.50;;;1.30;99.90;;;;;;5080921;28;20208;-63
2021/12/07 08:18:18;;;;;;;35.10;11.17;;;1.30;99.90;;;;;;5065445;28;20200;-64
2021/12/07 08:20:46;;;;;;;44.37;12.43;;;1.30;99.90;;;;;;5067097;28;20203;-63
2021/12/07 08:23:16;;;;;;;29.70;8.87;;;1.30;99.90;;;;;;5066780;28;20726;-63
2021/12/07 08:25:49;;;;;;;17.90;6.73;;;1.40;99.90;;;;;;5066098;28;20271;-63
2021/12/07 08:28:19;;;;;;;25.37;6.97;;;1.40;99.90;;;;;;5065740;28;20293;-63
2021/12/07 08:30:50;;;;;;;33.03;16.33;;;1.50;99.90;;;;;;5066551;28;20208;-63
2021/12/07 08:33:19;;;;;;;27.57;9.57;;;1.50;99.90;;;;;;5067186;28;20222;-63
2021/12/07 08:35:48;;;;;;;25.50;6.80;;;1.60;99.90;;;;;;5066149;28;21061;-63
2021/12/07 08:38:18;;;;;;;21.40;9.87;;;1.60;99.90;;;;;;5068642;28;20216;-63
2021/12/07 08:40:53;;;;;;;35.87;14.97;;;1.60;99.90;;;;;;5067449;28;20254;-63
2021/12/07 08:43:23;;;;;;;34.53;11.37;;;1.60;99.90;;;;;;5065419;28;20265;-63
2021/12/07 08:45:53;;;;;;;16.67;7.10;;;1.60;99.90;;;;;;5065101;28;20220;-63
2021/12/07 08:48:22;;;;;;;23.30;7.03;;;1.60;99.90;;;;;;5062118;28;20196;-63
2021/12/07 08:50:51;;;;;;;32.20;7.30;;;1.60;99.90;;;;;;5067521;28;20240;-63
2021/12/07 08:53:23;;;;;;;24.10;7.10;;;1.70;99.90;;;;;;5081670;28;20283;-63
2021/12/07 09:01:31;;;;;;;27.57;5.97;;;1.80;99.90;;;;;;5065308;28;20203;-63
2021/12/07 09:04:00;;;;;;;22.67;6.27;;;2.00;99.90;;;;;;5066571;28;20201;-63
2021/12/07 09:06:30;;;;;;;23.37;6.50;;;2.10;99.90;;;;;;5063847;28;20231;-63
2021/12/07 09:09:00;;;;;;;30.17;8.23;;;2.20;99.90;;;;;;5066967;28;20746;-64
2021/12/07 09:11:29;;;;;;;23.50;7.33;;;2.30;99.90;;;;;;5066077;28;20251;-63
2021/12/07 09:13:57;;;;;;;27.23;9.17;;;2.40;99.90;;;;;;5066538;28;20192;-64
2021/12/07 09:16:26;;;;;;;76.40;36.90;;;2.50;99.90;;;;;;5066686;28;20287;-63
2021/12/07 09:18:54;;;;;;;38.10;13.20;;;2.60;99.90;;;;;;5079570;28;20203;-64
2021/12/07 09:21:23;;;;;;;88.33;33.77;;;2.70;99.90;;;;;;5064655;28;20214;-63
2021/12/07 09:23:52;;;;;;;22.43;7.93;;;2.80;99.90;;;;;;5066975;28;20197;-64
2021/12/07 09:26:22;;;;;;;58.50;24.67;;;2.90;99.90;;;;;;5064687;28;20211;-64
2021/12/07 09:28:53;;;;;;;14.43;5.30;;;3.10;99.90;;;;;;5066836;28;20279;-64
2021/12/07 09:31:22;;;;;;;114.17;38.70;;;3.20;99.90;;;;;;5063567;28;20270;-64
2021/12/07 09:33:51;;;;;;;29.83;9.60;;;3.30;99.90;;;;;;5081993;28;20840;-64
2021/12/07 09:36:20;;;;;;;13.00;4.80;;;3.50;99.90;;;;;;5061999;28;20311;-64
2021/12/07 09:38:56;;;;;;;30.27;7.53;;;3.70;99.90;;;;;;5066233;28;20224;-64
2021/12/07 09:41:26;;;;;;;13.27;5.40;;;3.80;99.90;;;;;;5065600;28;20295;-64
2021/12/07 09:43:54;;;;;;;22.30;10.53;;;3.80;99.90;;;;;;5066397;28;20200;-64
2021/12/07 09:46:23;;;;;;;24.23;11.07;;;4.00;99.90;;;;;;5065955;28;20227;-64
2021/12/07 09:48:55;;;;;;;31.93;14.43;;;4.00;99.90;;;;;;5066378;28;20295;-63
2021/12/07 09:51:26;;;;;;;20.70;10.03;;;4.10;99.90;;;;;;5065548;28;20220;-64
2021/12/07 09:53:56;;;;;;;16.53;6.03;;;4.20;99.90;;;;;;5085269;28;20604;-64
2021/12/07 09:56:26;;;;;;;24.10;9.13;;;4.20;99.90;;;;;;5066720;28;20200;-63
2021/12/07 09:58:59;;;;;;;9.23;3.73;;;4.30;99.90;;;;;;5067516;28;20603;-63
2021/12/07 10:01:29;;;;;;;11.70;4.80;;;4.50;99.90;;;;;;5066254;28;20264;-64
2021/12/07 10:03:58;;;;;;;7.47;3.83;;;4.50;99.90;;;;;;5067910;28;20747;-64
2021/12/07 10:06:26;;;;;;;18.13;4.40;;;4.60;99.90;;;;;;5069535;28;20238;-64
2021/12/07 10:08:55;;;;;;;13.90;4.30;;;4.60;99.90;;;;;;5069013;28;20200;-64
2021/12/07 10:11:26;;;;;;;13.43;4.53;;;4.60;99.90;;;;;;5067685;28;20224;-64
2021/12/07 10:13:54;;;;;;;14.10;4.13;;;4.50;99.90;;;;;;5069617;28;20204;-64
2021/12/07 10:16:25;;;;;;;16.63;4.10;;;4.40;99.90;;;;;;5068685;28;20533;-64
2021/12/07 10:18:58;;;;;;;12.63;4.10;;;4.40;99.90;;;;;;5068183;28;20203;-64
2021/12/07 10:21:31;;;;;;;15.77;4.80;;;4.30;99.90;;;;;;5068565;28;20195;-64
2021/12/07 10:24:06;;;;;;;18.57;6.37;;;4.30;99.90;;;;;;5068744;28;20566;-64
2021/12/07 10:26:39;;;;;;;9.67;3.70;;;4.30;99.90;;;;;;5066306;28;20207;-64
2021/12/07 10:29:10;;;;;;;13.33;4.20;;;4.30;99.90;;;;;;5066951;28;20223;-64
2021/12/07 10:31:41;;;;;;;13.77;6.90;;;4.30;99.90;;;;;;5079160;28;20215;-64
2021/12/07 10:34:13;;;;;;;9.40;3.47;;;4.30;99.90;;;;;;5066907;28;20196;-64
2021/12/07 10:36:44;;;;;;;16.07;4.63;;;4.30;99.90;;;;;;5069101;28;20237;-64
2021/12/07 10:39:14;;;;;;;12.10;4.33;;;4.30;99.90;;;;;;5066177;28;20300;-64
2021/12/07 10:41:46;;;;;;;11.70;3.40;;;4.40;99.90;;;;;;5060902;28;20227;-63
2021/12/07 10:44:17;;;;;;;14.83;3.67;;;4.40;99.90;;;;;;5063654;28;20187;-64
2021/12/07 10:46:50;;;;;;;20.67;4.30;;;4.50;99.90;;;;;;5068271;28;20204;-64
2021/12/07 10:49:46;;;;;;;12.30;3.93;;;4.50;99.90;;;;;;5065706;28;20267;-64
2021/12/07 10:52:26;;;;;;;19.50;4.17;;;4.50;99.90;;;;;;5036452;28;20257;-64
2021/12/07 10:55:10;;;;;;;13.80;4.07;;;4.50;99.90;;;;;;5062687;28;20200;-64
2021/12/07 10:57:44;;;;;;;15.63;4.10;;;4.60;99.90;;;;;;5065963;28;20300;-64
2021/12/07 11:00:21;;;;;;;16.43;4.47;;;4.60;99.90;;;;;;5063766;28;20577;-64
2021/12/07 11:02:53;;;;;;;14.87;5.80;;;4.60;99.90;;;;;;5065432;28;20278;-64
2021/12/07 11:05:24;;;;;;;19.47;8.30;;;4.70;99.90;;;;;;5066042;28;20238;-64
2021/12/07 11:07:53;;;;;;;14.83;4.80;;;4.80;99.90;;;;;;5065766;28;20616;-64
2021/12/07 11:10:29;;;;;;;13.63;4.13;;;4.90;99.90;;;;;;5067040;28;20208;-64
2021/12/07 11:13:07;;;;;;;11.53;4.00;;;5.00;99.90;;;;;;5078099;28;20208;-64
2021/12/07 11:15:42;;;;;;;18.30;5.90;;;5.00;99.90;;;;;;5065361;28;20261;-64
2021/12/07 11:18:12;;;;;;;16.80;4.80;;;5.30;99.90;;;;;;5068463;28;20556;-64
2021/12/07 11:20:41;;;;;;;16.17;6.20;;;5.60;99.90;;;;;;5067847;28;20246;-64
2021/12/07 11:23:13;;;;;;;13.10;4.23;;;5.70;99.90;;;;;;5067567;28;20508;-64
2021/12/07 11:31:26;;;;;;;13.27;4.50;;;5.80;99.90;;;;;;5069165;28;20220;-64
2021/12/07 11:33:57;;;;;;;10.07;4.00;;;5.80;99.90;;;;;;5068021;28;20718;-64
2021/12/07 11:36:28;;;;;;;10.50;4.47;;;5.90;99.90;;;;;;5069632;28;20898;-64
2021/12/07 11:38:58;;;;;;;18.37;4.50;;;5.80;99.90;;;;;;5068505;28;20636;-64
2021/12/07 11:41:32;;;;;;;10.07;4.90;;;5.80;99.90;;;;;;5065916;28;20222;-64
2021/12/07 11:44:06;;;;;;;11.27;4.83;;;5.80;99.90;;;;;;5068235;28;20192;-64
2021/12/07 11:46:37;;;;;;;12.67;5.00;;;5.90;99.90;;;;;;5070288;28;20200;-64
2021/12/07 11:49:11;;;;;;;11.80;6.10;;;5.90;99.90;;;;;;5067503;28;20188;-64
2021/12/07 11:51:41;;;;;;;10.47;5.70;;;5.90;99.90;;;;;;5069431;28;20211;-64
2021/12/07 11:54:10;;;;;;;10.10;5.67;;;5.70;99.90;;;;;;5069477;28;20207;-64
2021/12/07 11:56:39;;;;;;;14.23;6.03;;;5.70;99.90;;;;;;5069694;28;20230;-64
2021/12/07 11:59:11;;;;;;;16.43;6.40;;;5.60;99.90;;;;;;5075303;28;20203;-64
2021/12/07 12:01:45;;;;;;;15.30;7.50;;;5.60;99.90;;;;;;5080206;28;20203;-64
2021/12/07 12:04:16;;;;;;;17.23;7.37;;;5.50;99.90;;;;;;5064431;28;20287;-64
2021/12/07 12:06:47;;;;;;;14.43;7.30;;;5.60;99.90;;;;;;5070196;28;20204;-63
2021/12/07 12:09:16;;;;;;;15.70;7.93;;;5.70;99.90;;;;;;5063507;28;20253;-63
2021/12/07 12:11:52;;;;;;;12.93;8.00;;;5.60;99.90;;;;;;5070089;28;20277;-63
2021/12/07 12:14:40;;;;;;;20.23;8.20;;;5.60;99.90;;;;;;5068761;28;20219;-64
2021/12/07 12:17:11;;;;;;;14.57;7.33;;;5.50;99.90;;;;;;5082193;28;20196;-63
2021/12/07 12:19:56;;;;;;;16.27;7.70;;;5.50;99.90;;;;;;5069420;28;20305;-63
2021/12/07 12:22:32;;;;;;;17.10;7.20;;;5.50;99.90;;;;;;5068532;28;20275;-63
2021/12/07 12:25:06;;;;;;;13.67;6.83;;;5.40;99.90;;;;;;5069148;28;20743;-63
2021/12/07 12:27:41;;;;;;;13.83;6.90;;;5.40;99.90;;;;;;5069592;28;20203;-64
2021/12/07 12:30:21;;;;;;;14.50;6.67;;;5.40;99.90;;;;;;5066943;28;20203;-63
2021/12/07 12:32:55;;;;;;;15.67;6.40;;;5.50;99.90;;;;;;5064143;28;20207;-63
2021/12/07 12:35:34;;;;;;;15.13;6.20;;;5.50;99.90;;;;;;5068809;28;20261;-64
2021/12/07 12:38:04;;;;;;;21.23;7.23;;;5.50;99.90;;;;;;5069398;28;20200;-64
2021/12/07 12:40:34;;;;;;;12.13;6.30;;;5.50;99.90;;;;;;5068939;28;20849;-64
2021/12/07 12:43:03;;;;;;;16.53;5.53;;;5.60;99.90;;;;;;5069850;28;20559;-64
2021/12/07 12:45:37;;;;;;;11.07;5.70;;;5.50;99.90;;;;;;5070397;28;20274;-63
2021/12/07 12:48:08;;;;;;;14.00;5.43;;;5.50;99.90;;;;;;5065813;28;20199;-64
2021/12/07 12:50:46;;;;;;;11.23;5.23;;;5.60;99.90;;;;;;5069750;28;20199;-64
2021/12/07 12:53:22;;;;;;;10.83;5.73;;;5.60;99.90;;;;;;5069152;28;20227;-63
2021/12/07 12:55:52;;;;;;;14.13;5.40;;;5.70;99.90;;;;;;5069053;28;20237;-64
2021/12/07 12:58:38;;;;;;;9.70;4.93;;;5.70;99.90;;;;;;5068202;28;20219;-63
2021/12/07 13:01:21;;;;;;;14.13;5.47;;;5.60;99.90;;;;;;5083602;28;20799;-63
2021/12/07 13:04:06;;;;;;;11.30;5.00;;;5.70;99.90;;;;;;5066088;28;20196;-64
2021/12/07 13:06:54;;;;;;;19.00;5.17;;;5.60;99.90;;;;;;5069371;28;20663;-64
2021/12/07 13:09:31;;;;;;;8.33;4.73;;;5.60;99.90;;;;;;5083676;28;20222;-64
2021/12/07 13:12:03;;;;;;;10.30;4.93;;;5.70;99.90;;;;;;5068818;28;20605;-64
2021/12/07 13:14:39;;;;;;;11.03;5.37;;;5.70;99.90;;;;;;5069756;28;20216;-64
2021/12/07 13:17:20;;;;;;;12.60;6.00;;;5.70;99.90;;;;;;5069130;28;20599;-64
2021/12/07 13:20:29;;;;;;;14.60;5.47;;;5.70;99.90;;;;;;5063828;28;20640;-64
2021/12/07 13:23:07;;;;;;;12.00;5.00;;;5.70;99.90;;;;;;5069094;28;20537;-64
2021/12/07 13:25:38;;;;;;;18.37;5.60;;;5.70;99.90;;;;;;5067747;28;20273;-64
2021/12/07 13:28:14;;;;;;;12.10;5.70;;;5.70;99.90;;;;;;5069007;28;20650;-63
2021/12/07 13:31:13;;;;;;;12.33;4.90;;;5.70;99.90;;;;;;5064654;28;20192;-63
2021/12/07 13:33:48;;;;;;;11.53;5.33;;;5.70;99.90;;;;;;5056470;28;20239;-64
2021/12/07 13:36:39;;;;;;;15.37;5.33;;;5.70;99.90;;;;;;5081335;28;20261;-64
2021/12/07 13:39:32;;;;;;;12.23;5.33;;;5.70;99.90;;;;;;5067941;28;20293;-63
2021/12/07 13:42:04;;;;;;;15.67;5.77;;;5.70;99.90;;;;;;5068801;28;20207;-64
2021/12/07 13:44:36;;;;;;;11.57;5.73;;;5.60;99.90;;;;;;5069197;28;20656;-64
2021/12/07 13:47:07;;;;;;;12.50;5.83;;;5.60;99.90;;;;;;5084210;28;20196;-64
2021/12/07 13:49:42;;;;;;;11.63;6.03;;;5.60;99.90;;;;;;5068986;28;20240;-64
2021/12/07 13:52:13;;;;;;;11.97;6.83;;;5.60;99.90;;;;;;5068747;28;20214;-64
2021/12/07 13:54:44;;;;;;;11.97;6.67;;;5.60;99.90;;;;;;5065634;28;20249;-64
2021/12/07 13:57:17;;;;;;;11.17;6.13;;;5.70;99.90;;;;;;5067686;28;20286;-63
2021/12/07 14:00:14;;;;;;;16.53;5.93;;;5.60;99.90;;;;;;5068870;28;20196;-64
2021/12/07 14:02:49;;;;;;;13.83;7.20;;;5.70;99.90;;;;;;5069189;28;20618;-64
2021/12/07 14:05:23;;;;;;;12.73;6.10;;;5.70;99.90;;;;;;5065169;28;20191;-64
2021/12/07 14:07:53;;;;;;;15.00;6.70;;;5.70;99.90;;;;;;5068252;28;20273;-64
2021/12/07 14:10:23;;;;;;;14.70;6.50;;;5.70;99.90;;;;;;5065243;28;20192;-64
2021/12/07 14:12:54;;;;;;;11.07;5.50;;;5.70;99.90;;;;;;5068786;28;20242;-64
2021/12/07 14:15:26;;;;;;;11.63;5.30;;;5.70;99.90;;;;;;5083585;28;20188;-63
2021/12/07 14:17:56;;;;;;;12.17;6.50;;;5.70;99.90;;;;;;5069086;28;20199;-63
2021/12/07 14:20:36;;;;;;;21.67;5.67;;;5.70;99.90;;;;;;5067040;28;20237;-64
2021/12/07 14:23:16;;;;;;;10.73;4.80;;;5.70;99.90;;;;;;5064711;28;20275;-64
2021/12/07 14:25:50;;;;;;;8.27;4.73;;;5.70;99.90;;;;;;5065347;28;20192;-64
2021/12/07 14:28:27;;;;;;;11.03;4.07;;;5.70;99.90;;;;;;5065933;28;20299;-64
2021/12/07 14:31:00;;;;;;;6.90;3.47;;;5.70;99.90;;;;;;5065909;28;20184;-64
2021/12/07 14:33:28;;;;;;;12.77;4.17;;;5.70;99.90;;;;;;5063348;28;20295;-64
2021/12/07 14:35:59;;;;;;;7.97;4.03;;;5.80;99.90;;;;;;5065485;28;20304;-64
2021/12/07 14:38:32;;;;;;;5.87;3.80;;;5.70;99.90;;;;;;5067681;28;20212;-64
2021/12/07 14:41:03;;;;;;;6.90;3.77;;;5.70;99.90;;;;;;5066364;28;20455;-65
2021/12/07 14:43:34;;;;;;;5.47;3.30;;;5.70;99.90;;;;;;5062038;28;20655;-64
2021/12/07 14:46:04;;;;;;;7.33;3.70;;;5.70;99.90;;;;;;5066786;28;20707;-63
2021/12/07 14:48:35;;;;;;;5.70;3.37;;;5.60;99.90;;;;;;5089554;28;20203;-63